Friday, July 20, 2018, 12:43 PM EDT
Back to Local

KMGW, Morgantown Muni-hart Field

Location: Morgantown, WV, United States Lat: 39.65
Local Time: 12:43 PM EDT (16:43 GMT) Lon: -79.917
Time Zone: US/Eastern Elev: 1246 ft

Show me the last for .
Show Decoded

2018-07-20 11:53 METAR KMGW 201553Z 21007KT 10SM CLR 28/16 A3004 RMK AO2 SLP162 T02830156 =
2018-07-20 10:53 METAR KMGW 201453Z VRB05KT 10SM CLR 28/16 A3005 RMK AO2 SLP163 T02780156 58005 =
2018-07-20 09:53 METAR KMGW 201353Z 15008KT 10SM CLR 26/16 A3006 RMK AO2 SLP167 T02610156 =
2018-07-20 08:53 METAR KMGW 201253Z 14006KT 10SM CLR 23/15 A3007 RMK AO2 SLP170 T02330150 =
2018-07-20 07:53 METAR KMGW 201153Z 16009KT 10SM CLR 22/14 A3006 RMK AO2 SLP169 T02170139 10217
                 20194 53004 =
2018-07-20 06:53 METAR KMGW 201053Z AUTO 16005KT 10SM FEW070 21/14 A3006 RMK AO2 SLP167 T02060139
                 =
2018-07-20 05:53 METAR KMGW 200953Z AUTO 16005KT 10SM FEW070 20/14 A3005 RMK AO2 SLP165 T02000139
                 =
2018-07-20 04:53 METAR KMGW 200853Z AUTO 17008KT 10SM CLR 21/13 A3005 RMK AO2 SLP165 T02060133
                 58003 =
2018-07-20 03:53 METAR KMGW 200753Z AUTO 15007KT 10SM CLR 21/13 A3006 RMK AO2 SLP170 T02060133 =
2018-07-20 02:53 METAR KMGW 200653Z AUTO 16009KT 10SM CLR 21/14 A3005 RMK AO2 SLP166 T02110139 =
2018-07-20 01:53 METAR KMGW 200553Z AUTO 15008KT 10SM CLR 22/14 A3006 RMK AO2 SLP168 T02170139
                 10283 20211 50000 =
2018-07-20 00:53 METAR KMGW 200453Z AUTO 15011KT 10SM CLR 22/14 A3007 RMK AO2 SLP173 T02220139
                 402940133 =
2018-07-19 23:53 METAR KMGW 200353Z AUTO 17007KT 10SM CLR 23/14 A3007 RMK AO2 SLP172 T02280139 =
2018-07-19 22:53 METAR KMGW 200253Z 13006KT 10SM CLR 23/14 A3006 RMK AO2 SLP169 T02330139 53008 =
2018-07-19 21:53 METAR KMGW 200153Z 12005KT 10SM CLR 24/14 A3005 RMK AO2 SLP166 T02390144 =
2018-07-19 20:53 METAR KMGW 200053Z 11004KT 10SM CLR 25/15 A3004 RMK AO2 SLP164 T02500150 =
2018-07-19 19:53 METAR KMGW 192353Z 00000KT 10SM FEW080 28/13 A3004 RMK AO2 SLP162 T02830133
                 10294 20272 56008 =
2018-07-19 18:53 METAR KMGW 192253Z 00000KT 10SM FEW070 28/13 A3004 RMK AO2 SLP165 T02830128 =
2018-07-19 17:53 METAR KMGW 192153Z 21006KT 10SM SCT075 29/12 A3005 RMK AO2 SLP168 T02890117 =
2018-07-19 16:53 METAR KMGW 192053Z 15008KT 10SM CLR 29/12 A3006 RMK AO2 SLP171 T02890122 56012 =
2018-07-19 15:53 METAR KMGW 191953Z 16006KT 10SM CLR 29/11 A3006 RMK AO2 SLP173 T02890111 =
2018-07-19 14:53 METAR KMGW 191853Z 17005KT 10SM CLR 28/11 A3008 RMK AO2 SLP178 T02830111 =
2018-07-19 13:53 METAR KMGW 191753Z VRB03KT 10SM CLR 28/11 A3010 RMK AO2 SLP184 T02780111 10283
                 20156 58011 =
2018-07-19 12:53 METAR KMGW 191653Z 00000KT 10SM CLR 27/12 A3012 RMK AO2 SLP190 T02720117 =

Support USWX by starting your Amazon purchase here.